Time;durP1;ratioP1;P1;durP2;ratioP2;P2;SDS_P1;SDS_P2;PMS_P1;PMS_P2;Temp;Humidity;BMP_temperature;BMP_pressure;BME280_temperature;BME280_humidity;BME280_pressure;Samples;Min_cycle;Max_cycle;Signal;HPM_P1;HPM_P2
2021/05/20 00:02:21;;;;;;;13.68;7.65;;;;;;;7.36;89.86;96370.73;127819;1101;43425;-85
2021/05/20 00:04:51;;;;;;;10.73;8.50;;;;;;;7.38;90.30;96373.10;127845;1100;29274;-87
2021/05/20 00:07:21;;;;;;;10.05;6.90;;;;;;;7.44;90.03;96372.83;127802;1101;26954;-86
2021/05/20 00:09:51;;;;;;;10.75;8.00;;;;;;;7.47;90.16;96368.89;127731;1096;30078;-86
2021/05/20 00:12:21;;;;;;;10.40;7.98;;;;;;;7.52;90.11;96378.64;127727;1101;23375;-86
2021/05/20 00:14:51;;;;;;;12.18;8.03;;;;;;;7.54;89.97;96376.53;127703;1096;35600;-85
2021/05/20 00:17:21;;;;;;;12.45;8.25;;;;;;;7.57;90.16;96378.64;127753;1100;30188;-86
2021/05/20 00:19:51;;;;;;;12.68;8.40;;;;;;;7.60;90.27;96378.92;127742;1101;27940;-86
2021/05/20 00:22:21;;;;;;;11.95;8.28;;;;;;;7.64;90.18;96382.61;127757;1101;25734;-89
2021/05/20 00:24:50;;;;;;;12.83;8.68;;;;;;;7.67;89.96;96376.80;127736;1101;28256;-86
2021/05/20 00:27:20;;;;;;;12.45;8.55;;;;;;;7.62;90.13;96382.08;127749;1097;31231;-90
2021/05/20 00:29:50;;;;;;;11.75;7.65;;;;;;;7.63;90.20;96374.95;127775;1100;29989;-86
2021/05/20 00:32:20;;;;;;;12.00;8.38;;;;;;;7.61;90.50;96372.59;127779;1101;28149;-90
2021/05/20 00:34:50;;;;;;;13.13;9.73;;;;;;;7.65;90.26;96378.12;127830;1101;26765;-86
2021/05/20 00:37:20;;;;;;;13.88;10.03;;;;;;;7.65;90.20;96386.83;127817;1097;26219;-85
2021/05/20 00:39:50;;;;;;;14.15;9.33;;;;;;;7.66;90.58;96385.77;127796;1101;28565;-85
2021/05/20 00:42:20;;;;;;;14.98;9.38;;;;;;;7.65;90.43;96383.39;127795;1095;33292;-87
2021/05/20 00:44:55;;;;;;;14.50;9.48;;;;;;;7.70;90.70;96386.81;127731;1101;29177;-86
2021/05/20 00:47:29;;;;;;;14.43;9.15;;;;;;;7.68;90.71;96388.14;127786;1101;22780;-86
2021/05/20 00:50:00;;;;;;;15.03;8.60;;;;;;;7.67;90.37;96389.20;127835;1100;22867;-87
2021/05/20 00:52:29;;;;;;;;;;;;;;;7.66;90.91;96388.41;127814;1100;23907;-87
2021/05/20 00:55:00;;;;;;;13.25;9.58;;;;;;;7.69;91.09;96392.36;127769;1100;22863;-88
2021/05/20 00:57:30;;;;;;;11.85;9.15;;;;;;;7.72;90.84;96389.18;127814;1101;23951;-86
2021/05/20 01:00:07;;;;;;;11.68;8.90;;;;;;;7.70;91.20;96389.45;127746;1101;27916;-88
2021/05/20 01:02:39;;;;;;;14.20;9.83;;;;;;;7.72;90.99;96394.45;127758;1100;28588;-84
2021/05/20 01:05:12;;;;;;;14.38;9.63;;;;;;;7.76;91.01;96390.26;127743;1097;26901;-85
2021/05/20 01:07:42;;;;;;;15.07;9.57;;;;;;;7.77;91.16;96391.84;127721;1100;23393;-86
2021/05/20 01:10:13;;;;;;;13.13;9.00;;;;;;;7.81;91.06;96390.23;127732;1100;24112;-84
2021/05/20 01:12:43;;;;;;;13.87;9.30;;;;;;;7.86;90.93;96384.16;127794;1101;22825;-87
2021/05/20 01:15:25;;;;;;;12.00;9.05;;;;;;;7.89;91.30;96395.00;127798;1101;28693;-84
2021/05/20 01:17:55;;;;;;;14.30;9.88;;;;;;;7.92;91.02;96396.31;127806;1101;27426;-85
2021/05/20 01:20:26;;;;;;;15.90;10.77;;;;;;;7.90;91.16;96391.30;127843;1101;22840;-89
2021/05/20 01:23:05;;;;;;;13.98;9.65;;;;;;;7.90;91.21;96386.02;127769;1096;26196;-84
2021/05/20 01:25:36;;;;;;;13.63;9.58;;;;;;;7.93;90.88;96389.97;127873;1100;26631;-85
2021/05/20 01:28:08;;;;;;;12.70;8.83;;;;;;;7.89;90.82;96389.72;127816;1100;28368;-87
2021/05/20 01:30:40;;;;;;;15.20;9.58;;;;;;;7.85;90.65;96385.22;127771;1101;22784;-85
2021/05/20 01:33:11;;;;;;;14.55;10.20;;;;;;;7.82;90.91;96381.27;127722;1100;52234;-86
2021/05/20 01:35:44;;;;;;;13.58;9.93;;;;;;;7.84;91.05;96391.55;127831;1096;27109;-84
2021/05/20 01:41:13;;;;;;;13.48;10.10;;;;;;;7.93;90.90;96384.69;127782;1100;22825;-87
2021/05/20 01:43:43;;;;;;;13.58;9.50;;;;;;;7.98;90.97;96382.03;127801;1101;23319;-85
2021/05/20 01:46:13;;;;;;;13.58;9.98;;;;;;;7.98;90.82;96389.95;127782;1101;24142;-87
2021/05/20 01:48:45;;;;;;;12.55;9.00;;;;;;;7.92;90.64;96386.54;127858;1101;24555;-87
2021/05/20 01:51:17;;;;;;;12.70;9.08;;;;;;;7.85;90.32;96390.49;127700;1101;27127;-87
2021/05/20 01:53:49;;;;;;;14.28;9.48;;;;;;;7.77;90.40;96385.77;127723;1101;30326;-88
2021/05/20 01:56:21;;;;;;;12.85;10.08;;;;;;;7.73;90.53;96382.84;127785;1101;30630;-90
2021/05/20 01:58:51;;;;;;;16.23;9.88;;;;;;;7.72;90.57;96379.42;127875;1100;22971;-87
2021/05/20 02:01:20;;;;;;;;;;;;;;;7.70;90.26;96381.53;127790;1101;25412;-85
2021/05/20 02:03:50;;;;;;;12.15;8.60;;;;;;;7.71;90.40;96385.75;127770;1100;30884;-88
2021/05/20 02:06:20;;;;;;;12.90;8.68;;;;;;;7.68;90.45;96385.50;127735;1101;26348;-89
2021/05/20 02:08:50;;;;;;;7.50;5.75;;;;;;;7.65;90.85;96388.67;127729;1100;22966;-87
2021/05/20 02:11:20;;;;;;;14.60;8.88;;;;;;;7.64;90.53;96382.61;127807;1097;27410;-87
2021/05/20 02:13:50;;;;;;;11.75;9.05;;;;;;;7.60;90.53;96386.84;127779;1100;29121;-84
2021/05/20 02:16:19;;;;;;;12.93;9.75;;;;;;;7.59;91.10;96379.95;127755;1101;22766;-89
2021/05/20 02:18:49;;;;;;;8.48;6.68;;;;;;;7.54;90.94;96390.52;127686;1097;29733;-88
2021/05/20 02:21:19;;;;;;;14.95;9.28;;;;;;;7.53;91.60;96381.02;127700;1101;28899;-89
2021/05/20 02:23:49;;;;;;;15.35;8.98;;;;;;;7.56;91.75;96392.88;127752;1101;30420;-85
2021/05/20 02:26:19;;;;;;;13.48;9.65;;;;;;;7.58;92.29;96393.41;127840;1101;26382;-87
2021/05/20 02:28:49;;;;;;;16.05;9.15;;;;;;;7.58;92.73;96396.84;127794;1101;28017;-85
2021/05/20 02:31:19;;;;;;;11.60;8.58;;;;;;;7.61;92.54;96400.81;127796;1100;30218;-89
2021/05/20 02:33:49;;;;;;;12.68;8.53;;;;;;;7.63;92.06;96401.34;127802;1101;25511;-84
2021/05/20 02:36:19;;;;;;;12.47;9.17;;;;;;;7.66;91.93;96401.59;127783;1101;25996;-89
2021/05/20 02:38:49;;;;;;;13.75;9.15;;;;;;;7.68;91.98;96404.76;127772;1101;22939;-86
2021/05/20 02:41:19;;;;;;;13.30;9.33;;;;;;;7.71;91.68;96406.86;127754;1101;22759;-85
2021/05/20 02:43:49;;;;;;;12.25;8.13;;;;;;;7.72;91.54;96405.02;127726;1100;23494;-85
2021/05/20 02:46:19;;;;;;;11.75;8.63;;;;;;;7.68;91.63;96410.03;127797;1096;26761;-87
2021/05/20 02:48:49;;;;;;;12.73;8.30;;;;;;;7.61;91.84;96398.97;127812;1100;23392;-89
2021/05/20 02:51:22;;;;;;;14.25;10.10;;;;;;;7.56;91.58;96395.52;127719;1101;28813;-86
2021/05/20 02:53:52;;;;;;;15.88;9.35;;;;;;;7.48;91.67;96404.77;127737;1101;23552;-84
2021/05/20 02:56:30;;;;;;;12.48;9.15;;;;;;;7.47;91.85;96403.19;127706;1101;28748;-88
2021/05/20 02:59:00;;;;;;;14.35;8.93;;;;;;;7.49;91.85;96405.55;127766;1101;27713;-84
2021/05/20 03:01:30;;;;;;;15.18;9.53;;;;;;;7.48;91.97;96404.77;127744;1101;61664;-87
2021/05/20 03:04:00;;;;;;;13.68;9.20;;;;;;;7.50;91.79;96418.48;127855;1100;31909;-84
2021/05/20 03:06:30;;;;;;;12.75;8.68;;;;;;;7.44;91.80;96408.96;127831;1101;22836;-85
2021/05/20 03:09:00;;;;;;;12.33;8.90;;;;;;;7.43;91.68;96405.53;127777;1101;29869;-86
2021/05/20 03:11:30;;;;;;;12.77;9.07;;;;;;;7.46;91.98;96409.52;127749;1101;23978;-85
2021/05/20 03:14:00;;;;;;;12.40;8.78;;;;;;;7.46;91.68;96412.16;127774;1101;25409;-86
2021/05/20 03:16:30;;;;;;;10.78;7.83;;;;;;;7.47;92.01;96403.19;127748;1100;28537;-86
2021/05/20 03:19:00;;;;;;;13.85;8.75;;;;;;;7.49;91.79;96406.34;127720;1096;32812;-84
2021/05/20 03:21:29;;;;;;;;;;;;;;;7.49;91.74;96408.19;127782;1100;29710;-89
2021/05/20 03:23:59;;;;;;;11.50;7.90;;;;;;;7.49;91.75;96406.34;127808;1101;25027;-85
2021/05/20 03:26:28;;;;;;;;;;;;;;;7.52;91.85;96405.81;127787;1101;24922;-83
2021/05/20 03:28:58;;;;;;;14.03;9.40;;;;;;;7.61;92.43;96404.25;127791;1097;26015;-85
2021/05/20 03:31:28;;;;;;;13.78;9.43;;;;;;;7.83;93.05;96405.80;127719;1101;27840;-87
2021/05/20 03:33:58;;;;;;;13.55;10.15;;;;;;;7.98;92.88;96406.58;127767;1097;25810;-85
2021/05/20 03:36:28;;;;;;;15.50;10.90;;;;;;;8.11;92.15;96407.88;127748;1095;27776;-86
2021/05/20 03:38:57;;;;;;;15.53;9.93;;;;;;;8.17;91.96;96412.11;127759;1101;26031;-85
2021/05/20 03:41:27;;;;;;;14.93;9.97;;;;;;;8.21;91.42;96418.44;127782;1100;25235;-85
2021/05/20 03:43:57;;;;;;;13.65;9.48;;;;;;;8.25;91.35;96416.05;127733;1101;25414;-84
2021/05/20 03:46:27;;;;;;;12.35;8.35;;;;;;;8.28;91.13;96418.94;127771;1101;23146;-85
2021/05/20 03:48:57;;;;;;;14.38;9.88;;;;;;;8.32;90.77;96420.00;127727;1101;22905;-85
2021/05/20 03:51:27;;;;;;;15.15;9.90;;;;;;;8.36;90.84;96424.77;127753;1101;26059;-85
2021/05/20 03:53:57;;;;;;;14.83;10.88;;;;;;;8.41;90.19;96433.47;127739;1096;26441;-85
2021/05/20 03:56:27;;;;;;;15.98;9.90;;;;;;;8.45;90.40;96431.89;127761;1100;24994;-86
2021/05/20 03:58:57;;;;;;;12.38;9.20;;;;;;;8.49;89.93;96426.85;127798;1101;22760;-85
2021/05/20 04:01:27;;;;;;;14.70;10.00;;;;;;;8.54;89.57;96432.11;127763;1094;26008;-85
2021/05/20 04:03:57;;;;;;;11.83;8.98;;;;;;;8.58;89.61;96433.94;127773;1100;23300;-85
2021/05/20 04:06:27;;;;;;;12.78;8.08;;;;;;;8.61;89.53;96433.42;127726;1101;27900;-85
2021/05/20 04:08:57;;;;;;;16.53;9.38;;;;;;;8.66;89.26;96434.45;127745;1097;28974;-84
2021/05/20 04:11:28;;;;;;;14.00;9.70;;;;;;;8.71;89.02;96437.86;127689;1101;31234;-86
2021/05/20 04:13:58;;;;;;;11.93;8.60;;;;;;;8.74;88.64;96437.34;127708;1100;52071;-85
2021/05/20 04:16:28;;;;;;;14.75;9.53;;;;;;;8.79;88.53;96439.95;127785;1095;27030;-88
2021/05/20 04:18:58;;;;;;;14.30;9.30;;;;;;;8.82;88.34;96444.70;127733;1096;34995;-85
2021/05/20 04:21:28;;;;;;;13.98;8.95;;;;;;;8.84;88.12;96447.85;127733;1101;29093;-86
2021/05/20 04:23:58;;;;;;;12.88;8.78;;;;;;;8.84;88.01;96442.56;127721;1100;30477;-85
2021/05/20 04:26:29;;;;;;;12.98;9.68;;;;;;;8.84;88.23;96452.35;127739;1096;30290;-87
2021/05/20 04:28:59;;;;;;;14.60;8.90;;;;;;;8.87;87.88;96452.63;127767;1094;23937;-84
2021/05/20 04:31:30;;;;;;;13.50;9.90;;;;;;;8.88;88.10;96456.84;127766;1101;26595;-84
2021/05/20 04:34:00;;;;;;;14.40;9.53;;;;;;;8.93;87.80;96456.02;127736;1101;23565;-85
2021/05/20 04:36:30;;;;;;;13.00;8.90;;;;;;;8.98;87.56;96455.20;127746;1096;26378;-89
2021/05/20 04:39:00;;;;;;;12.90;9.43;;;;;;;9.02;87.65;96459.70;127762;1094;26894;-87
2021/05/20 04:41:31;;;;;;;11.28;8.68;;;;;;;9.04;87.03;96462.86;127726;1101;39595;-87
2021/05/20 04:44:01;;;;;;;13.15;9.25;;;;;;;9.07;87.08;96467.59;127750;1100;26226;-88
2021/05/20 04:46:31;;;;;;;11.68;7.98;;;;;;;9.09;86.98;96464.68;127752;1101;23450;-85
2021/05/20 04:49:02;;;;;;;15.95;9.78;;;;;;;9.08;87.31;96457.81;127728;1101;28043;-86
2021/05/20 04:51:32;;;;;;;12.98;8.10;;;;;;;9.07;86.47;96448.30;127796;1101;22770;-87
2021/05/20 04:54:02;;;;;;;14.20;8.85;;;;;;;9.08;86.47;96463.89;127797;1101;42759;-88
2021/05/20 04:56:32;;;;;;;10.55;7.65;;;;;;;9.17;86.46;96466.77;127709;1101;72894;-87
2021/05/20 04:59:02;;;;;;;12.63;9.18;;;;;;;9.19;86.79;96465.42;127744;1101;24478;-84
2021/05/20 05:01:33;;;;;;;14.63;8.40;;;;;;;9.26;86.37;96469.62;127762;1100;24081;-88
2021/05/20 05:04:03;;;;;;;14.48;9.33;;;;;;;9.28;85.96;96473.56;127786;1101;28668;-87
2021/05/20 05:06:33;;;;;;;12.13;8.53;;;;;;;9.31;86.10;96475.69;127770;1101;28607;-87
2021/05/20 05:09:09;;;;;;;13.93;9.08;;;;;;;9.35;85.85;96479.36;127729;1101;23838;-87
2021/05/20 05:11:39;;;;;;;12.48;8.58;;;;;;;9.37;85.52;96474.58;127799;1101;28662;-85
2021/05/20 05:14:09;;;;;;;12.43;8.65;;;;;;;9.36;85.07;96470.36;127818;1101;24346;-85
2021/05/20 05:16:39;;;;;;;12.43;8.58;;;;;;;9.36;84.83;96474.86;127850;1100;25743;-85
2021/05/20 05:19:09;;;;;;;12.55;7.90;;;;;;;9.41;84.72;96477.47;127831;1097;51611;-88
2021/05/20 05:21:39;;;;;;;12.30;8.10;;;;;;;9.52;85.12;96468.41;127793;1101;24530;-86
2021/05/20 05:24:10;;;;;;;12.48;8.63;;;;;;;9.56;84.29;96473.94;127847;1100;27489;-86
2021/05/20 05:26:40;;;;;;;13.57;8.47;;;;;;;9.59;84.47;96478.70;127760;1101;28718;-87
2021/05/20 05:29:09;;;;;;;11.18;8.15;;;;;;;9.63;84.79;96485.81;127804;1101;24454;-86
2021/05/20 05:31:39;;;;;;;12.20;8.38;;;;;;;9.63;83.88;96482.38;127820;1100;25155;-84
2021/05/20 05:34:09;;;;;;;11.95;8.85;;;;;;;9.63;84.14;96490.31;127798;1100;29520;-88
2021/05/20 05:36:40;;;;;;;10.65;7.83;;;;;;;9.67;84.05;96496.63;127815;1100;23668;-85
2021/05/20 05:39:09;;;;;;;;;;;;;;;9.75;83.71;96504.80;127852;1100;26809;-87
2021/05/20 05:41:39;;;;;;;12.08;8.68;;;;;;;9.90;84.24;96495.95;127853;1100;27025;-87
2021/05/20 05:44:11;;;;;;;11.95;8.38;;;;;;;10.10;84.39;96497.64;127857;1101;28501;-87
2021/05/20 05:46:42;;;;;;;12.03;7.85;;;;;;;10.16;83.49;96498.41;127809;1101;27479;-87
2021/05/20 05:49:15;;;;;;;11.17;7.40;;;;;;;10.21;82.86;96503.66;127762;1101;25088;-85
2021/05/20 05:51:49;;;;;;;12.15;8.10;;;;;;;10.11;82.83;96504.52;127722;1101;29630;-85
2021/05/20 05:54:20;;;;;;;11.80;8.20;;;;;;;10.07;83.02;96506.94;127737;1101;30478;-86
2021/05/20 05:56:49;;;;;;;12.18;8.03;;;;;;;10.11;83.68;96507.17;127776;1100;28258;-88
2021/05/20 05:59:20;;;;;;;10.15;7.15;;;;;;;10.12;83.09;96504.23;127696;1094;29537;-86
2021/05/20 06:01:50;;;;;;;10.65;6.85;;;;;;;10.20;82.84;96504.73;127737;1100;28270;-86
2021/05/20 06:04:21;;;;;;;11.73;7.50;;;;;;;10.25;82.62;96507.35;127766;1100;28861;-88
2021/05/20 06:06:51;;;;;;;10.90;7.35;;;;;;;10.31;82.89;96506.26;127782;1101;22843;-90
2021/05/20 06:09:21;;;;;;;10.17;6.57;;;;;;;10.41;82.46;96506.14;127774;1101;27239;-89
2021/05/20 06:11:51;;;;;;;12.13;7.83;;;;;;;10.43;81.70;96504.03;127725;1096;32528;-88
2021/05/20 06:14:21;;;;;;;10.35;7.05;;;;;;;10.45;80.69;96515.14;127818;1101;26589;-86
2021/05/20 06:16:50;;;;;;;;;;;;;;;10.48;80.85;96514.58;127791;1101;27110;-89
2021/05/20 06:19:20;;;;;;;12.20;8.28;;;;;;;10.48;81.62;96511.92;127758;1101;26673;-86
2021/05/20 06:21:50;;;;;;;11.33;7.68;;;;;;;10.64;81.89;96512.56;127719;1100;24996;-86
2021/05/20 06:24:20;;;;;;;9.07;6.87;;;;;;;10.72;81.52;96508.52;127734;1101;27911;-90
2021/05/20 06:26:50;;;;;;;10.15;7.45;;;;;;;10.80;81.11;96516.64;127756;1101;23697;-88
2021/05/20 06:29:20;;;;;;;11.13;6.48;;;;;;;11.00;80.70;96510.34;127762;1101;29173;-88
2021/05/20 06:31:50;;;;;;;10.70;8.03;;;;;;;10.95;78.98;96511.16;127754;1095;23313;-85
2021/05/20 06:34:20;;;;;;;8.18;6.83;;;;;;;11.02;79.59;96518.80;127709;1100;33115;-88
2021/05/20 06:36:50;;;;;;;10.13;7.03;;;;;;;11.02;79.57;96513.50;127813;1101;22776;-87
2021/05/20 06:39:20;;;;;;;12.90;7.25;;;;;;;11.02;80.23;96521.45;127722;1101;38245;-88
2021/05/20 06:41:50;;;;;;;9.03;6.33;;;;;;;11.09;78.61;96513.92;127738;1101;29536;-85
2021/05/20 06:44:20;;;;;;;9.65;6.68;;;;;;;11.26;79.63;96516.11;127744;1101;26665;-90
2021/05/20 06:46:50;;;;;;;11.53;6.70;;;;;;;11.70;80.34;96523.78;127794;1101;29265;-87
2021/05/20 06:49:20;;;;;;;10.50;7.15;;;;;;;12.06;80.18;96518.75;127738;1101;32822;-88
2021/05/20 06:51:50;;;;;;;8.28;6.00;;;;;;;12.13;79.19;96518.41;127696;1097;31241;-86
2021/05/20 06:54:20;;;;;;;9.38;6.33;;;;;;;12.15;77.53;96516.24;127765;1100;22909;-86
2021/05/20 06:56:53;;;;;;;8.70;5.95;;;;;;;12.27;78.54;96518.45;127771;1101;32267;-88
2021/05/20 07:02:11;;;;;;;7.70;5.43;;;;;;;12.54;76.87;96528.38;127797;1100;33500;-86
2021/05/20 07:04:41;;;;;;;10.85;6.30;;;;;;;13.05;76.95;96515.70;127829;1101;28960;-85
2021/05/20 07:07:12;;;;;;;9.30;6.18;;;;;;;13.83;76.84;96521.06;127880;1101;22761;-86
2021/05/20 07:09:42;;;;;;;7.08;4.55;;;;;;;14.41;74.10;96512.23;127867;1096;23288;-88
2021/05/20 07:12:13;;;;;;;6.13;4.63;;;;;;;14.90;70.94;96521.14;127872;1101;30628;-87
2021/05/20 07:14:44;;;;;;;9.10;4.73;;;;;;;15.32;70.90;96525.06;127813;1101;24156;-87
2021/05/20 07:17:14;;;;;;;8.73;4.40;;;;;;;15.28;71.52;96516.89;127846;1100;24646;-86
2021/05/20 07:19:44;;;;;;;6.65;4.18;;;;;;;15.74;71.14;96520.92;127725;1100;30178;-87
2021/05/20 07:22:14;;;;;;;5.13;3.83;;;;;;;17.12;69.81;96511.91;127850;1100;24215;-87
2021/05/20 07:24:45;;;;;;;7.73;4.53;;;;;;;19.88;67.31;96519.23;127808;1097;24831;-85
2021/05/20 07:27:15;;;;;;;6.10;4.18;;;;;;;21.64;62.71;96505.31;127768;1101;23936;-86
2021/05/20 07:29:45;;;;;;;6.08;4.30;;;;;;;23.03;58.34;96501.87;127732;1100;27872;-84
2021/05/20 07:32:18;;;;;;;6.60;4.20;;;;;;;23.38;59.42;96499.73;127765;1100;24510;-87
2021/05/20 07:34:49;;;;;;;6.48;4.35;;;;;;;22.87;54.14;96507.39;127839;1100;23129;-89
2021/05/20 07:37:18;;;;;;;;;;;;;;;20.73;52.86;96520.82;127757;1101;28357;-87
2021/05/20 07:39:48;;;;;;;5.88;3.90;;;;;;;20.31;54.90;96509.67;127750;1100;33164;-86
2021/05/20 07:42:18;;;;;;;4.73;3.70;;;;;;;20.83;58.72;96517.63;127745;1100;24215;-87
2021/05/20 07:44:53;;;;;;;5.03;3.68;;;;;;;22.20;57.35;96509.59;127715;1100;36256;-87
2021/05/20 07:47:23;;;;;;;6.80;3.70;;;;;;;23.21;51.34;96515.67;127760;1100;24838;-91
2021/05/20 07:49:53;;;;;;;5.85;4.03;;;;;;;21.30;50.97;96509.56;127790;1100;23540;-91
2021/05/20 07:52:23;;;;;;;4.80;3.75;;;;;;;18.97;49.66;96516.77;127827;1100;24948;-89
2021/05/20 07:54:56;;;;;;;4.93;3.58;;;;;;;19.69;54.03;96510.95;127802;1101;23616;-87
2021/05/20 07:57:26;;;;;;;5.53;3.85;;;;;;;21.54;53.05;96505.09;127785;1101;22780;-89
2021/05/20 07:59:55;;;;;;;;;;;;;;;19.98;51.80;96509.88;127817;1101;25802;-87
2021/05/20 08:02:34;;;;;;;6.05;3.73;;;;;;;18.72;53.32;96511.69;127809;1100;24182;-87
2021/05/20 08:05:07;;;;;;;7.98;4.40;;;;;;;17.27;52.88;96505.22;127801;1100;28806;-89
2021/05/20 08:07:47;;;;;;;7.05;4.58;;;;;;;16.46;55.64;96511.45;127792;1100;30442;-85
2021/05/20 08:10:45;;;;;;;8.13;4.38;;;;;;;16.08;56.39;96506.80;127786;1100;55082;-87
2021/05/20 08:13:16;;;;;;;6.23;4.60;;;;;;;19.18;56.18;96503.25;127788;1101;24065;-87
2021/05/20 08:15:46;;;;;;;7.18;4.03;;;;;;;18.48;53.61;96498.97;127753;1101;26097;-85
2021/05/20 08:18:16;;;;;;;9.07;4.80;;;;;;;17.62;55.18;96495.88;127770;1101;25657;-86
2021/05/20 08:20:47;;;;;;;7.50;4.80;;;;;;;17.00;55.91;96509.91;127726;1100;27514;-86
2021/05/20 08:23:16;;;;;;;;;;;;;;;16.35;55.24;96505.67;127754;1096;26747;-85
2021/05/20 08:25:46;;;;;;;13.45;4.95;;;;;;;15.51;57.15;96511.45;127754;1095;26233;-85
2021/05/20 08:28:17;;;;;;;5.88;3.73;;;;;;;15.11;58.06;96514.17;127772;1094;26645;-86
2021/05/20 08:30:48;;;;;;;5.63;3.43;;;;;;;14.67;58.46;96520.42;127754;1100;29170;-86
2021/05/20 08:33:18;;;;;;;7.08;4.40;;;;;;;14.17;59.52;96515.99;127734;1100;30106;-86
2021/05/20 08:35:48;;;;;;;7.95;5.33;;;;;;;13.65;62.13;96526.25;127774;1100;25749;-87
2021/05/20 08:38:18;;;;;;;11.63;5.75;;;;;;;13.35;64.83;96530.31;127764;1100;29990;-86
2021/05/20 08:40:49;;;;;;;12.20;6.55;;;;;;;13.34;64.13;96533.27;127756;1100;25506;-86
2021/05/20 08:43:19;;;;;;;11.50;7.45;;;;;;;12.99;64.23;96535.52;127831;1100;27194;-87
2021/05/20 08:45:49;;;;;;;8.05;5.80;;;;;;;12.94;65.13;96553.44;127812;1100;28101;-87
2021/05/20 08:48:20;;;;;;;9.00;6.28;;;;;;;12.67;65.51;96549.68;127806;1100;26507;-88
2021/05/20 08:50:50;;;;;;;10.20;6.53;;;;;;;12.47;66.29;96548.14;127736;1100;29194;-89
2021/05/20 08:53:20;;;;;;;9.75;5.95;;;;;;;12.52;66.76;96552.57;127727;1100;53182;-85
2021/05/20 08:55:50;;;;;;;9.13;6.68;;;;;;;12.71;66.94;96550.66;127825;1096;26430;-88
2021/05/20 08:58:30;;;;;;;9.88;5.75;;;;;;;13.56;66.24;96549.34;127827;1100;27194;-87
2021/05/20 09:01:00;;;;;;;11.33;6.45;;;;;;;13.33;64.99;96550.33;127780;1101;25264;-88
2021/05/20 09:03:31;;;;;;;10.58;6.80;;;;;;;12.71;66.46;96547.22;127737;1097;32023;-85
2021/05/20 09:06:05;;;;;;;12.50;7.60;;;;;;;12.09;69.89;96562.55;127772;1096;32535;-85
2021/05/20 09:08:35;;;;;;;11.03;7.03;;;;;;;11.69;70.85;96571.88;127803;1101;23144;-85
2021/05/20 09:11:06;;;;;;;11.98;7.73;;;;;;;11.45;72.47;96561.28;127765;1095;25881;-84
2021/05/20 09:13:39;;;;;;;10.48;6.60;;;;;;;11.24;73.43;96568.68;127729;1100;29819;-86
2021/05/20 09:16:15;;;;;;;11.15;7.20;;;;;;;11.19;74.14;96566.09;127812;1100;22823;-89
2021/05/20 09:18:45;;;;;;;10.90;7.90;;;;;;;11.13;73.74;96561.94;127732;1100;25446;-85
2021/05/20 09:21:16;;;;;;;10.70;7.03;;;;;;;11.14;74.12;96564.30;127825;1101;25759;-85
2021/05/20 09:23:51;;;;;;;8.80;6.20;;;;;;;11.25;74.83;96555.13;127781;1100;28598;-86
2021/05/20 09:26:35;;;;;;;10.65;6.95;;;;;;;11.39;74.49;96557.09;127786;1101;26796;-87
2021/05/20 09:29:14;;;;;;;9.63;6.03;;;;;;;11.71;74.55;96562.55;127783;1101;32615;-85
2021/05/20 09:31:47;;;;;;;12.28;6.65;;;;;;;11.96;74.04;96558.75;127779;1101;22944;-85
2021/05/20 09:34:18;;;;;;;10.90;7.63;;;;;;;12.65;74.22;96551.03;127780;1100;22757;-85
2021/05/20 09:36:50;;;;;;;10.47;6.93;;;;;;;13.15;72.63;96553.86;127812;1100;28944;-84
2021/05/20 09:39:20;;;;;;;9.60;6.53;;;;;;;12.98;71.75;96549.92;127788;1101;41113;-85
2021/05/20 09:42:14;;;;;;;9.88;6.95;;;;;;;12.84;71.20;96550.98;127750;1101;28419;-87
2021/05/20 09:44:44;;;;;;;10.43;6.50;;;;;;;12.77;70.65;96540.71;127757;1100;28635;-84
2021/05/20 09:47:16;;;;;;;7.98;6.43;;;;;;;12.84;70.34;96548.33;127774;1096;24958;-84
2021/05/20 09:50:07;;;;;;;8.23;5.73;;;;;;;13.20;69.00;96545.80;127760;1097;31360;-86
2021/05/20 09:52:38;;;;;;;7.80;4.93;;;;;;;13.33;69.94;96551.13;127732;1101;30030;-86
2021/05/20 09:55:20;;;;;;;6.48;4.75;;;;;;;13.48;70.16;96552.69;127759;1101;23285;-88
2021/05/20 09:57:51;;;;;;;8.25;4.50;;;;;;;13.28;67.75;96551.23;127779;1101;28315;-88
2021/05/20 10:00:23;;;;;;;6.35;4.03;;;;;;;13.30;69.86;96551.72;127751;1101;25884;-86
2021/05/20 10:03:05;;;;;;;5.35;3.70;;;;;;;13.50;69.06;96555.84;127810;1100;27472;-90
2021/05/20 10:05:38;;;;;;;4.17;3.43;;;;;;;13.88;68.88;96545.71;127754;1101;22777;-86
2021/05/20 10:08:11;;;;;;;8.25;5.28;;;;;;;14.37;69.12;96545.95;127763;1101;24433;-86
2021/05/20 10:10:43;;;;;;;7.83;3.93;;;;;;;14.81;68.06;96543.25;127785;1101;30499;-89
2021/05/20 10:13:16;;;;;;;5.88;3.73;;;;;;;15.58;68.77;96552.63;127810;1101;23105;-87
2021/05/20 10:15:47;;;;;;;16.10;5.48;;;;;;;15.88;63.91;96540.28;127745;1101;31060;-85
2021/05/20 10:18:19;;;;;;;11.73;6.20;;;;;;;15.86;63.55;96531.79;127755;1097;25857;-86
2021/05/20 10:20:50;;;;;;;6.48;3.93;;;;;;;15.90;59.48;96527.38;127699;1101;27691;-86
2021/05/20 10:23:22;;;;;;;11.18;5.20;;;;;;;15.51;60.68;96522.14;127754;1101;29442;-87
2021/05/20 10:25:55;;;;;;;4.48;2.80;;;;;;;15.14;60.17;96540.25;127810;1101;28713;-87
2021/05/20 10:28:26;;;;;;;3.10;2.80;;;;;;;15.03;61.85;96541.61;127772;1101;26949;-87
2021/05/20 10:30:58;;;;;;;3.40;2.53;;;;;;;15.01;61.60;96538.47;127826;1100;27527;-86
2021/05/20 10:33:30;;;;;;;4.63;2.70;;;;;;;15.13;62.16;96538.67;127795;1101;28955;-88
2021/05/20 10:36:02;;;;;;;5.35;2.95;;;;;;;15.57;60.24;96534.23;127730;1100;28414;-89
2021/05/20 10:38:39;;;;;;;4.35;3.10;;;;;;;15.43;60.61;96545.05;127765;1101;23012;-92
2021/05/20 10:41:12;;;;;;;4.35;3.00;;;;;;;15.25;59.25;96544.22;127788;1100;30799;-89
2021/05/20 10:43:44;;;;;;;4.28;2.38;;;;;;;14.89;57.22;96546.26;127919;1100;24246;-88
2021/05/20 10:46:17;;;;;;;5.00;2.88;;;;;;;14.03;56.51;96554.45;127756;1096;26780;-86
2021/05/20 10:48:52;;;;;;;4.43;2.30;;;;;;;13.56;57.94;96552.00;127750;1101;24141;-85
2021/05/20 10:51:24;;;;;;;3.35;2.28;;;;;;;13.38;59.35;96565.44;127739;1100;29177;-86
2021/05/20 10:54:06;;;;;;;4.80;2.95;;;;;;;13.28;60.08;96572.53;127831;1100;26522;-87
2021/05/20 10:56:57;;;;;;;2.95;1.88;;;;;;;12.99;57.37;96572.78;127843;1100;24958;-87
2021/05/20 10:59:50;;;;;;;5.98;2.00;;;;;;;12.66;55.93;96571.22;127783;1101;23081;-86
2021/05/20 11:02:51;;;;;;;2.40;1.63;;;;;;;12.43;55.74;96573.73;127713;1101;29350;-88
2021/05/20 11:05:57;;;;;;;1.43;1.33;;;;;;;12.49;57.27;96564.58;127845;1100;28438;-89
2021/05/20 11:09:00;;;;;;;3.95;1.93;;;;;;;12.64;57.39;96560.09;127707;1100;29337;-87
2021/05/20 11:11:51;;;;;;;1.23;1.13;;;;;;;12.77;55.51;96564.66;127734;1100;23879;-86
2021/05/20 11:14:42;;;;;;;3.95;1.50;;;;;;;12.93;56.47;96562.51;127820;1101;26651;-88
2021/05/20 11:17:36;;;;;;;1.73;1.30;;;;;;;13.19;56.77;96558.33;127877;1095;28067;-89
2021/05/20 11:20:36;;;;;;;4.50;1.60;;;;;;;13.58;58.21;96555.16;127736;1100;29418;-87
2021/05/20 11:23:42;;;;;;;2.30;1.78;;;;;;;13.92;56.28;96553.89;127535;1100;22942;-86
2021/05/20 11:26:19;;;;;;;3.10;1.75;;;;;;;13.90;56.75;96548.07;127891;1096;25841;-87
2021/05/20 11:29:09;;;;;;;2.85;1.70;;;;;;;13.90;54.96;96548.86;127753;1100;24692;-86
2021/05/20 11:31:42;;;;;;;;;;;;;;;13.76;53.74;96561.43;127714;1101;31620;-88
2021/05/20 11:37:01;;;;;;;3.25;1.80;;;;;;;13.91;57.11;96542.44;127732;1100;43754;-89
2021/05/20 11:39:31;;;;;;;3.33;1.65;;;;;;;14.00;56.96;96547.06;127746;1100;27501;-88
2021/05/20 11:42:04;;;;;;;2.55;1.53;;;;;;;14.04;56.10;96545.37;127768;1100;24401;-88
2021/05/20 11:44:34;;;;;;;3.70;1.83;;;;;;;14.11;55.43;96537.75;127693;1097;77116;-90
2021/05/20 11:47:07;;;;;;;2.33;1.58;;;;;;;14.61;57.27;96542.97;127778;1100;32122;-91
2021/05/20 11:49:38;;;;;;;12.28;2.48;;;;;;;14.97;55.88;96530.30;127748;1100;29570;-87
2021/05/20 11:52:10;;;;;;;1.65;1.20;;;;;;;15.12;55.75;96534.44;127729;1101;30038;-88
2021/05/20 11:54:42;;;;;;;2.63;1.48;;;;;;;15.24;56.64;96529.30;127769;1101;27088;-88
2021/05/20 11:57:13;;;;;;;4.10;1.35;;;;;;;15.31;55.99;96542.97;127905;1096;25929;-90
2021/05/20 11:59:49;;;;;;;2.35;1.10;;;;;;;15.22;54.16;96542.17;127892;1101;22779;-87